createdAt,value
2023-02-02T00:01:35.968Z,11.20
2023-02-02T00:04:04.521Z,8.17
2023-02-02T00:06:33.340Z,9.50
2023-02-02T00:09:03.153Z,9.10
2023-02-02T00:11:32.772Z,10.27
2023-02-02T00:14:01.918Z,8.93
2023-02-02T00:16:40.504Z,8.97
2023-02-02T00:19:09.608Z,8.57
2023-02-02T00:21:38.183Z,9.93
2023-02-02T00:24:06.899Z,9.50
2023-02-02T00:26:36.623Z,8.57
2023-02-02T00:29:05.570Z,10.03
2023-02-02T00:31:34.271Z,7.10
2023-02-02T00:34:02.733Z,9.30
2023-02-02T00:36:30.931Z,8.03
2023-02-02T00:38:59.190Z,6.90
2023-02-02T00:41:27.450Z,7.70
2023-02-02T00:44:14.504Z,8.77
2023-02-02T00:46:43.315Z,9.80
2023-02-02T00:49:11.922Z,7.80
2023-02-02T00:51:40.151Z,9.37
2023-02-02T00:54:08.779Z,8.67
2023-02-02T00:56:37.051Z,9.23
2023-02-02T00:59:06.671Z,9.50
2023-02-02T01:01:34.927Z,9.07
2023-02-02T01:04:03.587Z,11.20
2023-02-02T01:06:31.872Z,7.43
2023-02-02T01:09:00.210Z,9.40
2023-02-02T01:11:28.490Z,9.20
2023-02-02T01:13:56.771Z,8.43
2023-02-02T01:16:26.582Z,8.80
2023-02-02T01:18:55.053Z,9.20
2023-02-02T01:21:23.688Z,8.57
2023-02-02T01:23:51.993Z,9.17
2023-02-02T01:26:20.429Z,8.73
2023-02-02T01:28:48.845Z,10.53
2023-02-02T01:31:17.945Z,10.37
2023-02-02T01:33:48.290Z,7.53
2023-02-02T01:36:17.441Z,10.10
2023-02-02T01:38:45.698Z,10.70
2023-02-02T01:41:14.999Z,8.33
2023-02-02T01:43:54.977Z,9.33
2023-02-02T01:46:24.041Z,9.20
2023-02-02T01:48:55.576Z,9.27
2023-02-02T01:51:27.227Z,7.63
2023-02-02T01:53:56.521Z,6.87
2023-02-02T01:56:28.947Z,8.23
2023-02-02T01:58:57.640Z,7.30
2023-02-02T02:01:26.525Z,7.67
2023-02-02T02:03:56.715Z,7.10
2023-02-02T02:06:26.188Z,6.63
2023-02-02T02:08:55.504Z,7.63
2023-02-02T02:11:24.419Z,7.20
2023-02-02T02:14:11.128Z,6.77
2023-02-02T02:16:46.593Z,7.37
2023-02-02T02:19:24.089Z,7.83
2023-02-02T02:22:15.872Z,7.80
2023-02-02T02:25:21.893Z,6.63
2023-02-02T02:28:00.951Z,7.37
2023-02-02T02:30:38.198Z,7.87
2023-02-02T02:33:09.890Z,7.30
2023-02-02T02:35:42.671Z,6.10
2023-02-02T02:38:12.888Z,6.07
2023-02-02T02:40:44.313Z,6.83
2023-02-02T02:43:20.460Z,7.13
2023-02-02T02:45:49.016Z,6.20
2023-02-02T02:48:18.628Z,4.77
2023-02-02T02:50:46.959Z,6.27
2023-02-02T02:53:18.880Z,6.70
2023-02-02T02:55:48.941Z,6.70
2023-02-02T02:58:20.619Z,6.23
2023-02-02T03:00:53.090Z,6.80
2023-02-02T03:03:31.601Z,7.40
2023-02-02T03:06:03.481Z,7.10
2023-02-02T03:08:34.182Z,3.70
2023-02-02T03:11:03.354Z,5.97
2023-02-02T03:13:32.400Z,5.83
2023-02-02T03:16:00.711Z,7.40
2023-02-02T03:18:31.100Z,6.67
2023-02-02T03:20:59.342Z,7.00
2023-02-02T03:23:27.732Z,7.00
2023-02-02T03:25:55.987Z,6.37
2023-02-02T03:28:25.682Z,6.83
2023-02-02T03:30:55.427Z,6.43
2023-02-02T03:33:24.551Z,5.40
2023-02-02T03:35:54.479Z,8.53
2023-02-02T03:38:22.672Z,4.70
2023-02-02T03:40:52.238Z,6.73
2023-02-02T03:43:24.329Z,7.50
2023-02-02T03:45:57.226Z,7.17
2023-02-02T03:48:25.450Z,6.00
2023-02-02T03:50:55.038Z,6.63
2023-02-02T03:53:23.391Z,6.73
2023-02-02T03:55:51.657Z,6.03
2023-02-02T03:58:22.274Z,5.13
2023-02-02T04:00:50.810Z,6.33
2023-02-02T04:03:19.101Z,5.77
2023-02-02T04:05:51.120Z,9.80
2023-02-02T04:08:20.859Z,6.30
2023-02-02T04:10:49.154Z,7.00
2023-02-02T04:13:17.681Z,6.97
2023-02-02T04:15:45.957Z,6.47
2023-02-02T04:18:14.257Z,6.90
2023-02-02T04:20:42.835Z,7.40
2023-02-02T04:23:11.230Z,6.40
2023-02-02T04:25:40.880Z,6.27
2023-02-02T04:28:09.641Z,5.63
2023-02-02T04:30:37.988Z,6.33
2023-02-02T04:33:07.239Z,5.73
2023-02-02T04:35:35.494Z,4.73
2023-02-02T04:38:03.668Z,6.20
2023-02-02T04:40:31.914Z,7.47
2023-02-02T04:43:01.594Z,6.90
2023-02-02T04:45:29.957Z,8.17
2023-02-02T04:47:58.268Z,5.30
2023-02-02T04:50:26.897Z,5.70
2023-02-02T04:52:55.216Z,6.93
2023-02-02T04:55:24.257Z,6.07
2023-02-02T04:57:52.717Z,6.73
2023-02-02T05:00:23.134Z,6.23
2023-02-02T05:02:52.019Z,5.30
2023-02-02T05:05:20.511Z,6.03
2023-02-02T05:07:48.761Z,7.30
2023-02-02T05:10:16.989Z,5.83
2023-02-02T05:12:45.279Z,5.90
2023-02-02T05:15:13.576Z,6.70
2023-02-02T05:17:43.222Z,6.90
2023-02-02T05:20:12.214Z,8.87
2023-02-02T05:22:42.825Z,7.40
2023-02-02T05:25:11.568Z,7.40
2023-02-02T05:27:39.874Z,6.57
2023-02-02T05:30:12.545Z,6.77
2023-02-02T05:32:40.805Z,8.80
2023-02-02T05:35:11.873Z,9.33
2023-02-02T05:37:40.089Z,7.07
2023-02-02T05:40:08.861Z,6.97
2023-02-02T05:42:37.220Z,8.43
2023-02-02T05:45:05.837Z,8.47
2023-02-02T05:47:35.703Z,6.73
2023-02-02T05:50:04.550Z,8.33
2023-02-02T05:52:35.807Z,7.20
2023-02-02T05:55:04.157Z,9.00
2023-02-02T05:57:32.541Z,7.03
2023-02-02T06:00:00.895Z,8.80
2023-02-02T06:02:29.256Z,7.53
2023-02-02T06:04:57.646Z,8.77
2023-02-02T06:07:25.908Z,8.60
2023-02-02T06:09:55.975Z,7.60
2023-02-02T06:12:24.351Z,8.50
2023-02-02T06:14:52.636Z,9.47
2023-02-02T06:17:20.862Z,9.80
2023-02-02T06:19:49.137Z,8.47
2023-02-02T06:22:17.589Z,7.90
2023-02-02T06:24:45.863Z,8.50
2023-02-02T06:27:15.479Z,8.10
2023-02-02T06:29:43.685Z,8.43
2023-02-02T06:32:11.977Z,6.77
2023-02-02T06:34:40.794Z,9.00
2023-02-02T06:37:09.088Z,9.50
2023-02-02T06:39:37.468Z,8.30
2023-02-02T06:42:20.104Z,8.00
2023-02-02T06:44:50.877Z,9.10
2023-02-02T06:47:19.097Z,9.23
2023-02-02T06:49:47.652Z,7.70
2023-02-02T06:52:15.901Z,6.57
2023-02-02T06:54:44.307Z,7.07
2023-02-02T06:57:12.623Z,8.67
2023-02-02T06:59:41.678Z,7.57
2023-02-02T07:02:13.569Z,7.63
2023-02-02T07:04:41.892Z,7.40
2023-02-02T07:07:10.191Z,10.03
2023-02-02T07:09:41.017Z,9.03
2023-02-02T07:12:09.245Z,7.10
2023-02-02T07:14:37.932Z,9.33
2023-02-02T07:17:06.334Z,8.57
2023-02-02T07:19:36.006Z,5.20
2023-02-02T07:22:04.357Z,7.80
2023-02-02T07:24:32.830Z,6.50
2023-02-02T07:27:01.152Z,7.13
2023-02-02T07:29:29.463Z,7.03
2023-02-02T07:31:57.797Z,9.30
2023-02-02T07:34:26.233Z,8.03
2023-02-02T07:36:55.846Z,8.47
2023-02-02T07:39:24.108Z,9.20
2023-02-02T07:41:52.440Z,9.90
2023-02-02T07:44:20.728Z,8.50
2023-02-02T07:46:49.210Z,11.40
2023-02-02T07:49:19.960Z,8.77
2023-02-02T07:51:49.279Z,11.83
2023-02-02T07:54:20.304Z,9.90
2023-02-02T07:56:48.682Z,9.07
2023-02-02T07:59:19.052Z,10.60
2023-02-02T08:01:47.589Z,11.17
2023-02-02T08:04:17.396Z,9.57
2023-02-02T08:06:46.530Z,10.00
2023-02-02T08:09:14.914Z,8.07
2023-02-02T08:11:44.565Z,11.33
2023-02-02T08:14:14.882Z,9.73
2023-02-02T08:16:43.212Z,10.90
2023-02-02T08:19:11.778Z,10.33
2023-02-02T08:21:40.044Z,11.30
2023-02-02T08:24:08.581Z,9.73
2023-02-02T08:26:36.993Z,10.50
2023-02-02T08:29:07.520Z,9.00
2023-02-02T08:31:36.887Z,11.83
2023-02-02T08:34:05.856Z,12.10
2023-02-02T08:36:35.529Z,13.37
2023-02-02T08:39:04.366Z,9.00
2023-02-02T08:41:32.651Z,10.63
2023-02-02T08:44:00.918Z,9.80
2023-02-02T08:46:30.747Z,9.33
2023-02-02T08:48:59.311Z,6.60
2023-02-02T08:51:27.757Z,9.97
2023-02-02T08:53:56.077Z,9.70
2023-02-02T08:56:25.013Z,9.80
2023-02-02T08:58:54.309Z,9.83
2023-02-02T09:01:23.540Z,9.17
2023-02-02T09:03:56.587Z,9.30
2023-02-02T09:06:28.104Z,9.60
2023-02-02T09:08:56.685Z,9.27
2023-02-02T09:11:25.010Z,7.77
2023-02-02T09:13:56.474Z,7.77
2023-02-02T09:16:25.710Z,8.03
2023-02-02T09:18:54.235Z,8.67
2023-02-02T09:21:24.027Z,12.23
2023-02-02T09:23:53.713Z,10.63
2023-02-02T09:26:23.965Z,8.20
2023-02-02T09:28:53.660Z,9.20
2023-02-02T09:31:22.044Z,10.07
2023-02-02T09:33:50.314Z,8.47
2023-02-02T09:36:20.325Z,10.00
2023-02-02T09:38:50.362Z,7.10
2023-02-02T09:41:29.503Z,9.17
2023-02-02T09:44:00.485Z,9.50
2023-02-02T09:46:31.761Z,8.13
2023-02-02T09:49:02.425Z,10.07
2023-02-02T09:51:32.059Z,9.43
2023-02-02T09:54:04.799Z,8.93
2023-02-02T09:56:36.259Z,8.30
2023-02-02T09:59:19.400Z,8.07
2023-02-02T10:01:50.064Z,6.73
2023-02-02T10:04:20.153Z,8.37
2023-02-02T10:06:49.928Z,5.33
2023-02-02T10:09:25.213Z,8.17
2023-02-02T10:11:55.239Z,7.33
2023-02-02T10:14:25.971Z,7.47
2023-02-02T10:16:55.895Z,7.37
2023-02-02T10:19:29.151Z,8.17
2023-02-02T10:22:02.230Z,6.47
2023-02-02T10:24:35.483Z,7.97
2023-02-02T10:27:06.992Z,7.07
2023-02-02T10:29:48.800Z,8.03
2023-02-02T10:32:23.675Z,7.50
2023-02-02T10:35:13.534Z,8.93
2023-02-02T10:37:44.951Z,7.43
2023-02-02T10:40:19.102Z,9.70
2023-02-02T10:43:13.530Z,8.43
2023-02-02T10:45:43.840Z,7.40
2023-02-02T10:48:16.153Z,8.70
2023-02-02T10:50:47.648Z,7.53
2023-02-02T10:53:16.896Z,9.10
2023-02-02T10:55:51.326Z,7.63
2023-02-02T10:58:24.348Z,9.40
2023-02-02T11:00:53.964Z,9.07
2023-02-02T11:03:25.510Z,9.20
2023-02-02T11:06:11.777Z,7.30
2023-02-02T11:08:41.748Z,8.20
2023-02-02T11:11:19.294Z,7.00
2023-02-02T11:13:51.576Z,7.37
2023-02-02T11:16:21.357Z,8.37
2023-02-02T11:18:50.327Z,3.70
2023-02-02T11:21:20.440Z,9.00
2023-02-02T11:23:59.735Z,8.37
2023-02-02T11:26:43.559Z,9.70
2023-02-02T11:29:16.348Z,8.70
2023-02-02T11:31:44.843Z,8.53
2023-02-02T11:34:20.581Z,6.73
2023-02-02T11:37:02.130Z,8.10
2023-02-02T11:39:30.553Z,8.33
2023-02-02T11:42:06.240Z,7.27
2023-02-02T11:44:35.800Z,7.83
2023-02-02T11:47:05.980Z,8.13
2023-02-02T11:49:35.650Z,8.90
2023-02-02T11:52:05.422Z,8.13
2023-02-02T11:54:34.733Z,8.10
2023-02-02T11:57:05.698Z,7.07
2023-02-02T11:59:35.926Z,6.53
2023-02-02T12:02:24.832Z,8.37
2023-02-02T12:04:54.220Z,7.10
2023-02-02T12:07:26.243Z,6.23
2023-02-02T12:09:59.724Z,7.20
2023-02-02T12:12:34.342Z,6.50
2023-02-02T12:15:07.582Z,5.00
2023-02-02T12:17:40.850Z,6.60
2023-02-02T12:20:18.316Z,6.90
2023-02-02T12:22:54.461Z,6.80
2023-02-02T12:25:35.524Z,6.50
2023-02-02T12:28:11.449Z,6.90
2023-02-02T12:30:43.346Z,7.80
2023-02-02T12:33:20.967Z,6.80
2023-02-02T12:35:52.972Z,5.33
2023-02-02T12:38:25.284Z,6.97
2023-02-02T12:41:05.790Z,6.63
2023-02-02T12:43:40.691Z,6.50
2023-02-02T12:46:15.385Z,5.30
2023-02-02T12:48:48.175Z,6.10
2023-02-02T12:51:23.077Z,4.83
2023-02-02T12:54:33.502Z,5.10
2023-02-02T12:56:56.948Z,4.77
2023-02-02T12:59:33.921Z,5.00
2023-02-02T13:02:05.260Z,4.40
2023-02-02T13:04:45.410Z,4.87
2023-02-02T13:07:19.843Z,4.40
2023-02-02T13:09:51.159Z,3.97
2023-02-02T13:12:21.373Z,4.07
2023-02-02T13:14:52.589Z,4.50
2023-02-02T13:17:24.040Z,3.87
2023-02-02T13:19:54.091Z,3.40
2023-02-02T13:22:25.283Z,3.40
2023-02-02T13:24:58.969Z,3.13
2023-02-02T13:27:28.921Z,3.53
2023-02-02T13:30:02.768Z,4.27
2023-02-02T13:32:32.979Z,4.07
2023-02-02T13:35:03.641Z,4.30
2023-02-02T13:37:37.168Z,3.70
2023-02-02T13:40:07.377Z,3.90
2023-02-02T13:42:41.938Z,3.73
2023-02-02T13:45:24.632Z,4.70
2023-02-02T13:47:55.987Z,4.90
2023-02-02T13:50:30.407Z,5.27
2023-02-02T13:53:08.439Z,4.50
2023-02-02T13:55:55.203Z,4.37
2023-02-02T13:58:38.341Z,5.37
2023-02-02T14:01:09.648Z,3.80
2023-02-02T14:03:39.935Z,3.87
2023-02-02T14:06:10.069Z,4.30
2023-02-02T14:08:39.098Z,3.93
2023-02-02T14:11:08.770Z,3.03
2023-02-02T14:14:01.472Z,3.73
2023-02-02T14:17:00.035Z,3.03
2023-02-02T14:19:46.501Z,3.90
2023-02-02T14:22:39.856Z,3.13
2023-02-02T14:25:26.692Z,3.63
2023-02-02T14:27:59.279Z,4.03
2023-02-02T14:30:38.605Z,3.10
2023-02-02T14:33:25.145Z,3.33
2023-02-02T14:36:03.942Z,3.70
2023-02-02T14:38:41.350Z,3.80
2023-02-02T14:41:13.891Z,3.43
2023-02-02T14:43:49.835Z,3.90
2023-02-02T14:46:23.757Z,3.10
2023-02-02T14:49:07.662Z,3.83
2023-02-02T14:51:45.993Z,4.07
2023-02-02T14:54:21.319Z,4.33
2023-02-02T14:56:51.354Z,3.77
2023-02-02T14:59:21.098Z,3.70
2023-02-02T15:01:56.188Z,4.00
2023-02-02T15:04:28.463Z,4.00
2023-02-02T15:06:59.651Z,2.80
2023-02-02T15:09:41.686Z,4.37
2023-02-02T15:12:34.207Z,3.80
2023-02-02T15:15:20.247Z,3.30
2023-02-02T15:18:04.562Z,3.70
2023-02-02T15:20:34.839Z,2.57
2023-02-02T15:23:05.391Z,2.80
2023-02-02T15:25:36.117Z,3.53
2023-02-02T15:28:10.603Z,3.70
2023-02-02T15:30:40.151Z,3.60
2023-02-02T15:33:12.372Z,3.83
2023-02-02T15:35:40.851Z,3.30
2023-02-02T15:38:13.953Z,3.30
2023-02-02T15:40:43.585Z,4.67
2023-02-02T15:43:13.836Z,3.00
2023-02-02T15:45:45.075Z,2.47
2023-02-02T15:48:21.867Z,3.27
2023-02-02T15:50:54.610Z,4.00
2023-02-02T15:53:24.595Z,4.57
2023-02-02T15:55:54.557Z,3.17
2023-02-02T15:58:28.744Z,4.07
2023-02-02T16:01:06.718Z,4.47
2023-02-02T16:03:42.664Z,4.60
2023-02-02T16:06:11.375Z,3.50
2023-02-02T16:08:42.277Z,4.97
2023-02-02T16:11:13.560Z,3.33
2023-02-02T16:13:42.707Z,4.17
2023-02-02T16:16:24.486Z,4.10
2023-02-02T16:19:14.718Z,3.63
2023-02-02T16:21:45.941Z,4.50
2023-02-02T16:24:16.444Z,4.70
2023-02-02T16:26:47.442Z,3.00
2023-02-02T16:29:18.440Z,3.90
2023-02-02T16:31:47.748Z,3.43
2023-02-02T16:34:17.284Z,4.10
2023-02-02T16:36:46.802Z,3.50
2023-02-02T16:39:19.106Z,5.47
2023-02-02T16:41:50.709Z,3.80
2023-02-02T16:44:33.810Z,3.60
2023-02-02T16:47:02.332Z,5.37
2023-02-02T16:49:31.101Z,5.00
2023-02-02T16:52:10.693Z,4.60
2023-02-02T16:54:45.616Z,4.00
2023-02-02T16:57:19.793Z,4.20
2023-02-02T16:59:49.845Z,4.10
2023-02-02T17:02:21.267Z,4.40
2023-02-02T17:04:50.734Z,5.13
2023-02-02T17:07:19.303Z,3.73
2023-02-02T17:09:48.942Z,3.50
2023-02-02T17:12:35.767Z,4.47
2023-02-02T17:15:23.006Z,4.30
2023-02-02T17:17:51.425Z,4.33
2023-02-02T17:20:20.341Z,3.90
2023-02-02T17:22:49.535Z,4.57
2023-02-02T17:25:18.474Z,4.20
2023-02-02T17:27:49.480Z,4.67
2023-02-02T17:30:19.454Z,4.77
2023-02-02T17:32:47.744Z,4.70
2023-02-02T17:35:16.607Z,5.07
2023-02-02T17:37:44.995Z,4.90
2023-02-02T17:40:19.014Z,4.13
2023-02-02T17:42:49.557Z,5.30
2023-02-02T17:45:19.525Z,5.50
2023-02-02T17:47:48.283Z,6.40
2023-02-02T17:50:16.889Z,4.33
2023-02-02T17:52:46.358Z,5.23
2023-02-02T17:55:15.403Z,6.23
2023-02-02T17:57:47.249Z,6.50
2023-02-02T18:00:17.926Z,4.93
2023-02-02T18:02:46.520Z,5.57
2023-02-02T18:05:16.349Z,5.70
2023-02-02T18:07:44.727Z,6.03
2023-02-02T18:10:14.321Z,6.40
2023-02-02T18:12:42.567Z,6.53
2023-02-02T18:15:13.382Z,6.07
2023-02-02T18:17:43.051Z,5.63
2023-02-02T18:20:11.950Z,6.60
2023-02-02T18:22:43.978Z,7.50
2023-02-02T18:25:15.314Z,6.13
2023-02-02T18:27:43.554Z,6.70
2023-02-02T18:30:12.657Z,6.20
2023-02-02T18:32:41.464Z,6.93
2023-02-02T18:35:11.971Z,5.87
2023-02-02T18:37:40.738Z,8.43
2023-02-02T18:40:09.810Z,7.57
2023-02-02T18:42:38.257Z,7.60
2023-02-02T18:45:07.177Z,8.40
2023-02-02T18:47:35.430Z,7.73
2023-02-02T18:50:03.719Z,8.27
2023-02-02T18:52:36.354Z,7.80
2023-02-02T18:55:04.837Z,7.93
2023-02-02T18:57:33.228Z,8.23
2023-02-02T19:00:01.492Z,16.17
2023-02-02T19:02:29.763Z,14.60
2023-02-02T19:05:15.584Z,12.70
2023-02-02T19:07:58.006Z,11.60
2023-02-02T19:10:28.499Z,10.70
2023-02-02T19:12:59.318Z,9.50
2023-02-02T19:15:27.937Z,10.47
2023-02-02T19:17:56.564Z,8.50
2023-02-02T19:20:29.334Z,9.57
2023-02-02T19:23:02.027Z,9.57
2023-02-02T19:25:30.587Z,11.87
2023-02-02T19:27:59.426Z,12.63
2023-02-02T19:30:27.983Z,10.87
2023-02-02T19:32:56.371Z,10.80
2023-02-02T19:35:26.312Z,9.27
2023-02-02T19:37:58.880Z,11.53
2023-02-02T19:40:28.830Z,10.80
2023-02-02T19:42:58.228Z,11.90
2023-02-02T19:45:28.811Z,10.10
2023-02-02T19:47:58.084Z,11.00
2023-02-02T19:50:31.725Z,11.43
2023-02-02T19:53:02.311Z,11.23
2023-02-02T19:55:36.605Z,10.30
2023-02-02T19:58:15.748Z,10.67
2023-02-02T20:00:45.069Z,10.03
2023-02-02T20:03:14.475Z,8.80
2023-02-02T20:05:44.651Z,8.77
2023-02-02T20:08:20.850Z,11.63
2023-02-02T20:10:50.677Z,11.40
2023-02-02T20:13:21.373Z,13.07
2023-02-02T20:15:52.424Z,11.57
2023-02-02T20:18:22.806Z,11.40
2023-02-02T20:20:53.637Z,13.70
2023-02-02T20:23:28.718Z,11.47
2023-02-02T20:25:59.354Z,11.77
2023-02-02T20:28:37.418Z,12.90
2023-02-02T20:31:06.768Z,13.00
2023-02-02T20:33:35.204Z,14.23
2023-02-02T20:36:03.800Z,11.33
2023-02-02T20:38:38.058Z,11.50
2023-02-02T20:41:07.718Z,12.30
2023-02-02T20:43:36.180Z,11.17
2023-02-02T20:46:04.930Z,13.60
2023-02-02T20:48:42.760Z,11.30
2023-02-02T20:51:11.037Z,12.37
2023-02-02T20:53:40.980Z,11.10
2023-02-02T20:56:11.009Z,13.60
2023-02-02T20:58:39.337Z,11.47
2023-02-02T21:01:08.111Z,13.10
2023-02-02T21:03:36.358Z,12.90
2023-02-02T21:06:04.680Z,11.53
2023-02-02T21:08:33.213Z,13.53
2023-02-02T21:11:01.621Z,14.57
2023-02-02T21:13:31.261Z,15.00
2023-02-02T21:15:59.537Z,13.03
2023-02-02T21:18:28.008Z,12.90
2023-02-02T21:20:56.371Z,12.80
2023-02-02T21:23:24.697Z,12.60
2023-02-02T21:25:52.972Z,13.87
2023-02-02T21:28:21.271Z,10.83
2023-02-02T21:30:51.049Z,14.63
2023-02-02T21:33:19.378Z,12.73
2023-02-02T21:35:47.675Z,11.70
2023-02-02T21:38:16.958Z,13.20
2023-02-02T21:40:47.112Z,11.57
2023-02-02T21:43:16.382Z,11.37
2023-02-02T21:45:45.626Z,12.30
2023-02-02T21:48:27.830Z,11.47
2023-02-02T21:51:19.973Z,10.90
2023-02-02T21:53:48.208Z,11.00
2023-02-02T21:56:25.371Z,13.30
2023-02-02T21:58:53.850Z,11.10
2023-02-02T22:01:24.120Z,11.43
2023-02-02T22:03:54.123Z,11.30
2023-02-02T22:06:26.382Z,12.17
2023-02-02T22:08:56.229Z,8.93
2023-02-02T22:11:29.286Z,10.20
2023-02-02T22:14:00.978Z,11.00
2023-02-02T22:16:29.473Z,11.23
2023-02-02T22:18:59.950Z,11.40
2023-02-02T22:21:28.385Z,10.23
2023-02-02T22:23:56.685Z,10.50
2023-02-02T22:26:30.838Z,10.27
2023-02-02T22:28:59.074Z,10.30
2023-02-02T22:31:27.402Z,10.70
2023-02-02T22:33:55.729Z,9.80
2023-02-02T22:36:26.280Z,9.17
2023-02-02T22:38:54.437Z,8.83
2023-02-02T22:41:22.766Z,9.33
2023-02-02T22:43:51.054Z,9.63
2023-02-02T22:46:19.357Z,9.10
2023-02-02T22:48:47.611Z,10.37
2023-02-02T22:51:15.820Z,9.87
2023-02-02T22:53:45.380Z,9.50
2023-02-02T22:56:13.954Z,8.40
2023-02-02T22:58:42.212Z,9.93
2023-02-02T23:01:11.650Z,7.90
2023-02-02T23:03:40.004Z,8.83
2023-02-02T23:06:08.598Z,8.43
2023-02-02T23:08:36.787Z,7.77
2023-02-02T23:11:06.401Z,8.43
2023-02-02T23:13:34.598Z,8.30
2023-02-02T23:16:02.834Z,5.87
2023-02-02T23:18:31.133Z,8.17
2023-02-02T23:20:59.354Z,8.13
2023-02-02T23:23:27.591Z,7.20
2023-02-02T23:25:55.808Z,7.30
2023-02-02T23:28:25.661Z,7.00
2023-02-02T23:30:54.686Z,7.83
2023-02-02T23:33:22.967Z,7.23
2023-02-02T23:35:51.188Z,7.70
2023-02-02T23:38:19.437Z,7.47
2023-02-02T23:40:47.653Z,6.87
2023-02-02T23:43:16.109Z,7.50
2023-02-02T23:45:46.066Z,8.30
2023-02-02T23:48:14.465Z,5.33
2023-02-02T23:50:42.857Z,7.13
2023-02-02T23:53:11.912Z,7.30
2023-02-02T23:55:41.563Z,7.50
2023-02-02T23:58:10.016Z,7.37
